sensor_id;sensor_type;location;lat;lon;timestamp;pressure;altitude;pressure_sealevel;temperature;humidity
39051;BME280;24805;55.852;37.644;2023-05-25T00:04:03;99391.94;;;18.22;62.98
39051;BME280;24805;55.852;37.644;2023-05-25T00:09:06;99390.53;;;18.20;63.08
39051;BME280;24805;55.852;37.644;2023-05-25T00:14:08;99384.69;;;18.23;63.42
39051;BME280;24805;55.852;37.644;2023-05-25T00:19:11;99384.69;;;18.23;63.27
39051;BME280;24805;55.852;37.644;2023-05-25T00:24:13;99383.28;;;18.20;63.28
39051;BME280;24805;55.852;37.644;2023-05-25T00:29:15;99379.22;;;18.18;63.76
39051;BME280;24805;55.852;37.644;2023-05-25T00:34:17;99380.13;;;18.12;64.18
39051;BME280;24805;55.852;37.644;2023-05-25T00:39:20;99385.59;;;18.05;64.19
39051;BME280;24805;55.852;37.644;2023-05-25T00:44:22;99386.50;;;17.99;64.41
39051;BME280;24805;55.852;37.644;2023-05-25T00:49:26;99376.47;;;17.95;64.25
39051;BME280;24805;55.852;37.644;2023-05-25T00:54:29;99359.88;;;17.86;64.52
39051;BME280;24805;55.852;37.644;2023-05-25T00:59:37;99352.78;;;17.92;65.06
39051;BME280;24805;55.852;37.644;2023-05-25T01:04:44;99351.81;;;17.86;65.12
39051;BME280;24805;55.852;37.644;2023-05-25T01:09:55;99348.75;;;17.82;65.27
39051;BME280;24805;55.852;37.644;2023-05-25T01:14:58;99334.94;;;17.67;65.07
39051;BME280;24805;55.852;37.644;2023-05-25T01:20:04;99327.78;;;17.61;65.49
39051;BME280;24805;55.852;37.644;2023-05-25T01:25:17;99320.63;;;17.73;65.72
39051;BME280;24805;55.852;37.644;2023-05-25T01:30:25;99323.78;;;17.70;65.44
39051;BME280;24805;55.852;37.644;2023-05-25T01:35:30;99319.91;;;17.66;65.75
39051;BME280;24805;55.852;37.644;2023-05-25T01:40:32;99320.28;;;17.70;65.62
39051;BME280;24805;55.852;37.644;2023-05-25T01:45:35;99315.28;;;17.73;65.36
39051;BME280;24805;55.852;37.644;2023-05-25T01:50:50;99329.06;;;17.88;65.28
39051;BME280;24805;55.852;37.644;2023-05-25T01:55:58;99333.03;;;17.86;65.27
39051;BME280;24805;55.852;37.644;2023-05-25T02:01:03;99346.06;;;17.82;65.22
39051;BME280;24805;55.852;37.644;2023-05-25T02:06:06;99337.34;;;17.87;64.83
39051;BME280;24805;55.852;37.644;2023-05-25T02:11:09;99343.00;;;18.09;64.60
39051;BME280;24805;55.852;37.644;2023-05-25T02:16:12;99348.75;;;18.24;64.17
39051;BME280;24805;55.852;37.644;2023-05-25T02:21:18;99348.06;;;18.40;63.62
39051;BME280;24805;55.852;37.644;2023-05-25T02:26:20;99344.72;;;18.56;62.87
39051;BME280;24805;55.852;37.644;2023-05-25T02:31:22;99360.16;;;18.73;62.88
39051;BME280;24805;55.852;37.644;2023-05-25T02:36:25;99366.34;;;18.97;62.24
39051;BME280;24805;55.852;37.644;2023-05-25T02:41:27;99367.91;;;19.21;61.23
39051;BME280;24805;55.852;37.644;2023-05-25T02:46:29;99377.91;;;19.49;60.48
39051;BME280;24805;55.852;37.644;2023-05-25T02:51:32;99380.16;;;19.80;60.19
39051;BME280;24805;55.852;37.644;2023-05-25T02:56:34;99383.41;;;20.11;59.17
39051;BME280;24805;55.852;37.644;2023-05-25T03:01:37;99385.25;;;20.39;58.58
39051;BME280;24805;55.852;37.644;2023-05-25T03:06:41;99385.56;;;20.59;58.10
39051;BME280;24805;55.852;37.644;2023-05-25T03:11:48;99383.38;;;20.73;57.93
39051;BME280;24805;55.852;37.644;2023-05-25T03:16:53;99400.69;;;20.77;57.59
39051;BME280;24805;55.852;37.644;2023-05-25T03:21:57;99393.25;;;20.84;57.37
39051;BME280;24805;55.852;37.644;2023-05-25T03:26:59;99396.66;;;20.96;57.20
39051;BME280;24805;55.852;37.644;2023-05-25T03:32:02;99414.94;;;21.11;56.80
39051;BME280;24805;55.852;37.644;2023-05-25T03:37:07;99399.22;;;21.24;56.80
39051;BME280;24805;55.852;37.644;2023-05-25T03:42:10;99394.03;;;21.40;56.71
39051;BME280;24805;55.852;37.644;2023-05-25T03:47:12;99387.06;;;21.44;56.88
39051;BME280;24805;55.852;37.644;2023-05-25T03:52:16;99388.84;;;21.55;56.62
39051;BME280;24805;55.852;37.644;2023-05-25T03:57:18;99389.81;;;21.71;56.42
39051;BME280;24805;55.852;37.644;2023-05-25T04:02:20;99376.03;;;21.94;55.82
39051;BME280;24805;55.852;37.644;2023-05-25T04:07:23;99371.88;;;22.08;55.33
39051;BME280;24805;55.852;37.644;2023-05-25T04:12:26;99371.94;;;22.18;55.30
39051;BME280;24805;55.852;37.644;2023-05-25T04:17:28;99365.56;;;22.29;55.22
39051;BME280;24805;55.852;37.644;2023-05-25T04:22:30;99361.84;;;22.36;55.12
39051;BME280;24805;55.852;37.644;2023-05-25T04:27:35;99356.44;;;22.36;55.01
39051;BME280;24805;55.852;37.644;2023-05-25T04:32:39;99362.94;;;22.40;55.27
39051;BME280;24805;55.852;37.644;2023-05-25T04:38:00;99356.81;;;22.49;54.55
39051;BME280;24805;55.852;37.644;2023-05-25T04:43:04;99361.25;;;22.65;54.16
39051;BME280;24805;55.852;37.644;2023-05-25T04:48:06;99363.59;;;22.89;54.06
39051;BME280;24805;55.852;37.644;2023-05-25T04:53:08;99373.75;;;23.14;53.56
39051;BME280;24805;55.852;37.644;2023-05-25T04:58:10;99373.03;;;23.38;52.51
39051;BME280;24805;55.852;37.644;2023-05-25T05:03:16;99374.28;;;23.83;51.49
39051;BME280;24805;55.852;37.644;2023-05-25T05:08:19;99364.84;;;24.21;50.70
39051;BME280;24805;55.852;37.644;2023-05-25T05:13:21;99374.66;;;24.63;49.70
39051;BME280;24805;55.852;37.644;2023-05-25T05:18:23;99365.38;;;24.99;48.38
39051;BME280;24805;55.852;37.644;2023-05-25T05:23:25;99383.50;;;25.29;47.58
39051;BME280;24805;55.852;37.644;2023-05-25T05:28:28;99364.75;;;25.33;46.47
39051;BME280;24805;55.852;37.644;2023-05-25T05:33:32;99350.13;;;25.19;46.57
39051;BME280;24805;55.852;37.644;2023-05-25T05:38:35;99362.66;;;25.10;47.10
39051;BME280;24805;55.852;37.644;2023-05-25T05:43:41;99365.66;;;25.03;47.26
39051;BME280;24805;55.852;37.644;2023-05-25T05:48:44;99345.06;;;24.77;47.21
39051;BME280;24805;55.852;37.644;2023-05-25T05:53:46;99366.22;;;24.85;47.61
39051;BME280;24805;55.852;37.644;2023-05-25T05:58:48;99367.84;;;24.96;47.55
39051;BME280;24805;55.852;37.644;2023-05-25T06:04:11;99365.34;;;25.15;47.47
39051;BME280;24805;55.852;37.644;2023-05-25T06:09:13;99362.59;;;25.25;46.78
39051;BME280;24805;55.852;37.644;2023-05-25T06:14:16;99353.63;;;25.29;46.62
39051;BME280;24805;55.852;37.644;2023-05-25T06:19:19;99362.66;;;25.04;47.54
39051;BME280;24805;55.852;37.644;2023-05-25T06:24:21;99341.50;;;24.81;47.51
39051;BME280;24805;55.852;37.644;2023-05-25T06:29:24;99356.75;;;24.72;48.15
39051;BME280;24805;55.852;37.644;2023-05-25T06:34:26;99360.00;;;24.44;48.76
39051;BME280;24805;55.852;37.644;2023-05-25T06:39:28;99357.81;;;24.20;49.36
39051;BME280;24805;55.852;37.644;2023-05-25T06:44:30;99354.84;;;24.12;49.30
39051;BME280;24805;55.852;37.644;2023-05-25T06:49:35;99350.22;;;23.97;49.94
39051;BME280;24805;55.852;37.644;2023-05-25T06:54:38;99348.03;;;23.99;49.64
39051;BME280;24805;55.852;37.644;2023-05-25T06:59:40;99359.97;;;24.23;49.59
39051;BME280;24805;55.852;37.644;2023-05-25T07:04:42;99358.94;;;24.39;49.17
39051;BME280;24805;55.852;37.644;2023-05-25T07:09:44;99363.81;;;24.48;49.47
39051;BME280;24805;55.852;37.644;2023-05-25T07:14:46;99367.34;;;24.53;49.35
39051;BME280;24805;55.852;37.644;2023-05-25T07:19:49;99368.16;;;24.49;49.31
39051;BME280;24805;55.852;37.644;2023-05-25T07:24:51;99376.28;;;24.44;49.53
39051;BME280;24805;55.852;37.644;2023-05-25T07:29:53;99362.75;;;24.54;49.98
39051;BME280;24805;55.852;37.644;2023-05-25T07:34:55;99360.28;;;24.67;49.76
39051;BME280;24805;55.852;37.644;2023-05-25T07:39:57;99361.31;;;24.92;49.31
39051;BME280;24805;55.852;37.644;2023-05-25T07:45:00;99362.13;;;25.02;49.22
39051;BME280;24805;55.852;37.644;2023-05-25T07:50:04;99362.94;;;25.03;49.07
39051;BME280;24805;55.852;37.644;2023-05-25T07:55:07;99360.47;;;25.06;48.96
39051;BME280;24805;55.852;37.644;2023-05-25T08:00:10;99367.22;;;25.19;48.57
39051;BME280;24805;55.852;37.644;2023-05-25T08:05:15;99356.69;;;25.13;48.56
39051;BME280;24805;55.852;37.644;2023-05-25T08:10:18;99354.50;;;25.10;48.91
39051;BME280;24805;55.852;37.644;2023-05-25T08:15:21;99351.25;;;25.08;48.80
39051;BME280;24805;55.852;37.644;2023-05-25T08:20:23;99351.00;;;24.94;49.25
39051;BME280;24805;55.852;37.644;2023-05-25T08:25:26;99355.38;;;24.75;49.29
39051;BME280;24805;55.852;37.644;2023-05-25T08:30:28;99335.06;;;24.42;50.32
39051;BME280;24805;55.852;37.644;2023-05-25T08:35:31;99350.53;;;24.51;50.16
39051;BME280;24805;55.852;37.644;2023-05-25T08:40:33;99352.69;;;24.49;50.24
39051;BME280;24805;55.852;37.644;2023-05-25T08:45:36;99353.53;;;24.55;50.13
39051;BME280;24805;55.852;37.644;2023-05-25T08:50:45;99353.75;;;24.63;50.11
39051;BME280;24805;55.852;37.644;2023-05-25T08:55:49;99358.09;;;24.59;50.09
39051;BME280;24805;55.852;37.644;2023-05-25T09:00:56;99355.69;;;24.53;49.94
39051;BME280;24805;55.852;37.644;2023-05-25T09:05:59;99353.78;;;24.28;50.79
39051;BME280;24805;55.852;37.644;2023-05-25T09:11:03;99357.28;;;24.08;50.91
39051;BME280;24805;55.852;37.644;2023-05-25T09:16:06;99350.50;;;23.95;51.37
39051;BME280;24805;55.852;37.644;2023-05-25T09:21:08;99348.84;;;23.89;52.34
39051;BME280;24805;55.852;37.644;2023-05-25T09:26:10;99343.69;;;23.83;53.18
39051;BME280;24805;55.852;37.644;2023-05-25T09:31:14;99347.22;;;23.88;54.31
39051;BME280;24805;55.852;37.644;2023-05-25T09:36:17;99350.22;;;23.92;54.34
39051;BME280;24805;55.852;37.644;2023-05-25T09:41:22;99353.41;;;23.79;55.88
39051;BME280;24805;55.852;37.644;2023-05-25T09:46:28;99346.91;;;23.69;55.16
39051;BME280;24805;55.852;37.644;2023-05-25T09:51:30;99358.53;;;23.65;55.24
39051;BME280;24805;55.852;37.644;2023-05-25T09:56:34;99350.66;;;23.53;57.20
39051;BME280;24805;55.852;37.644;2023-05-25T10:01:36;99350.09;;;23.51;56.46
39051;BME280;24805;55.852;37.644;2023-05-25T10:06:38;99348.41;;;23.35;58.27
39051;BME280;24805;55.852;37.644;2023-05-25T10:11:42;99335.34;;;23.22;58.84
39051;BME280;24805;55.852;37.644;2023-05-25T10:16:47;99352.66;;;23.21;59.76
39051;BME280;24805;55.852;37.644;2023-05-25T10:22:15;99342.38;;;23.23;58.52
39051;BME280;24805;55.852;37.644;2023-05-25T10:27:23;99345.59;;;23.10;57.73
39051;BME280;24805;55.852;37.644;2023-05-25T10:32:28;99340.13;;;23.05;57.37
39051;BME280;24805;55.852;37.644;2023-05-25T10:37:32;99342.16;;;23.29;57.50
39051;BME280;24805;55.852;37.644;2023-05-25T10:42:36;99344.66;;;23.51;56.90
39051;BME280;24805;55.852;37.644;2023-05-25T10:47:40;99347.38;;;23.51;56.41
39051;BME280;24805;55.852;37.644;2023-05-25T10:52:57;99344.72;;;23.56;56.34
39051;BME280;24805;55.852;37.644;2023-05-25T10:58:11;99338.50;;;23.66;56.44
39051;BME280;24805;55.852;37.644;2023-05-25T11:03:13;99337.44;;;23.67;56.61
39051;BME280;24805;55.852;37.644;2023-05-25T11:08:16;99326.38;;;23.89;55.82
39051;BME280;24805;55.852;37.644;2023-05-25T11:13:43;99321.81;;;24.30;56.20
39051;BME280;24805;55.852;37.644;2023-05-25T11:18:53;99334.28;;;24.26;54.99
39051;BME280;24805;55.852;37.644;2023-05-25T11:24:09;99329.66;;;24.31;54.40
39051;BME280;24805;55.852;37.644;2023-05-25T11:29:13;99323.38;;;24.05;54.85
39051;BME280;24805;55.852;37.644;2023-05-25T11:34:16;99314.19;;;23.91;54.95
39051;BME280;24805;55.852;37.644;2023-05-25T11:39:20;99313.88;;;23.73;54.83
39051;BME280;24805;55.852;37.644;2023-05-25T11:44:26;99303.31;;;23.71;54.51
39051;BME280;24805;55.852;37.644;2023-05-25T11:49:29;99288.19;;;23.95;53.86
39051;BME280;24805;55.852;37.644;2023-05-25T11:54:31;99296.88;;;24.33;52.66
39051;BME280;24805;55.852;37.644;2023-05-25T11:59:34;99281.34;;;24.64;51.44
39051;BME280;24805;55.852;37.644;2023-05-25T12:04:37;99287.78;;;24.93;50.21
39051;BME280;24805;55.852;37.644;2023-05-25T12:09:40;99297.06;;;24.72;51.03
39051;BME280;24805;55.852;37.644;2023-05-25T12:14:48;99296.25;;;24.61;51.67
39051;BME280;24805;55.852;37.644;2023-05-25T12:19:50;99292.22;;;24.38;51.27
39051;BME280;24805;55.852;37.644;2023-05-25T12:24:53;99289.22;;;24.60;50.88
39051;BME280;24805;55.852;37.644;2023-05-25T12:29:57;99285.22;;;25.22;50.07
39051;BME280;24805;55.852;37.644;2023-05-25T12:35:06;99274.53;;;25.85;48.32
39051;BME280;24805;55.852;37.644;2023-05-25T12:40:16;99267.25;;;26.96;46.07
39051;BME280;24805;55.852;37.644;2023-05-25T12:45:19;99262.22;;;27.27;43.76
39051;BME280;24805;55.852;37.644;2023-05-25T12:50:21;99271.00;;;28.45;41.75
39051;BME280;24805;55.852;37.644;2023-05-25T12:55:31;99276.84;;;29.85;40.04
39051;BME280;24805;55.852;37.644;2023-05-25T13:00:35;99270.84;;;29.96;38.87
39051;BME280;24805;55.852;37.644;2023-05-25T13:05:37;99265.00;;;29.17;39.07
39051;BME280;24805;55.852;37.644;2023-05-25T13:10:39;99264.44;;;28.46;40.82
39051;BME280;24805;55.852;37.644;2023-05-25T13:15:41;99263.50;;;27.72;41.75
39051;BME280;24805;55.852;37.644;2023-05-25T13:20:44;99283.28;;;26.98;43.48
39051;BME280;24805;55.852;37.644;2023-05-25T13:25:51;99270.84;;;26.05;44.82
39051;BME280;24805;55.852;37.644;2023-05-25T13:30:53;99275.84;;;25.54;46.13
39051;BME280;24805;55.852;37.644;2023-05-25T13:35:55;99287.25;;;24.96;47.39
39051;BME280;24805;55.852;37.644;2023-05-25T13:41:09;99278.06;;;24.77;47.87
39051;BME280;24805;55.852;37.644;2023-05-25T13:46:11;99273.97;;;24.80;47.65
39051;BME280;24805;55.852;37.644;2023-05-25T13:51:33;99278.56;;;24.94;47.19
39051;BME280;24805;55.852;37.644;2023-05-25T13:56:36;99279.97;;;24.66;46.95
39051;BME280;24805;55.852;37.644;2023-05-25T14:01:38;99281.94;;;24.15;48.15
39051;BME280;24805;55.852;37.644;2023-05-25T14:06:41;99275.69;;;23.79;49.13
39051;BME280;24805;55.852;37.644;2023-05-25T14:11:43;99257.53;;;23.69;49.22
39051;BME280;24805;55.852;37.644;2023-05-25T14:16:45;99266.75;;;23.79;49.41
39051;BME280;24805;55.852;37.644;2023-05-25T14:21:47;99248.06;;;23.87;49.48
39051;BME280;24805;55.852;37.644;2023-05-25T14:27:09;99244.28;;;23.93;49.73
39051;BME280;24805;55.852;37.644;2023-05-25T14:32:12;99229.91;;;23.88;49.06
39051;BME280;24805;55.852;37.644;2023-05-25T14:37:15;99230.19;;;23.71;49.41
39051;BME280;24805;55.852;37.644;2023-05-25T14:42:17;99222.06;;;23.71;49.87
39051;BME280;24805;55.852;37.644;2023-05-25T14:47:19;99210.16;;;23.72;49.05
39051;BME280;24805;55.852;37.644;2023-05-25T14:52:22;99207.69;;;23.65;48.66
39051;BME280;24805;55.852;37.644;2023-05-25T14:57:24;99222.03;;;23.61;49.09
39051;BME280;24805;55.852;37.644;2023-05-25T15:02:26;99223.41;;;23.63;49.30
39051;BME280;24805;55.852;37.644;2023-05-25T15:07:29;99228.56;;;23.75;48.78
39051;BME280;24805;55.852;37.644;2023-05-25T15:12:31;99226.13;;;23.89;48.69
39051;BME280;24805;55.852;37.644;2023-05-25T15:17:34;99225.28;;;23.63;49.01
39051;BME280;24805;55.852;37.644;2023-05-25T15:22:36;99239.94;;;23.57;49.05
39051;BME280;24805;55.852;37.644;2023-05-25T15:27:38;99240.69;;;23.47;49.55
39051;BME280;24805;55.852;37.644;2023-05-25T15:32:40;99237.69;;;23.38;49.61
39051;BME280;24805;55.852;37.644;2023-05-25T15:37:43;99241.75;;;23.36;49.50
39051;BME280;24805;55.852;37.644;2023-05-25T15:42:45;99223.31;;;23.18;50.33
39051;BME280;24805;55.852;37.644;2023-05-25T15:47:47;99231.91;;;22.99;50.96
39051;BME280;24805;55.852;37.644;2023-05-25T15:52:50;99216.16;;;22.86;50.77
39051;BME280;24805;55.852;37.644;2023-05-25T15:57:52;99217.84;;;23.02;50.83
39051;BME280;24805;55.852;37.644;2023-05-25T16:02:54;99222.19;;;23.09;50.94
39051;BME280;24805;55.852;37.644;2023-05-25T16:07:59;99212.19;;;23.19;50.25
39051;BME280;24805;55.852;37.644;2023-05-25T16:13:01;99205.72;;;23.25;50.36
39051;BME280;24805;55.852;37.644;2023-05-25T16:18:03;99201.69;;;23.33;50.15
39051;BME280;24805;55.852;37.644;2023-05-25T16:23:05;99203.06;;;23.35;50.07
39051;BME280;24805;55.852;37.644;2023-05-25T16:28:07;99199.53;;;23.35;50.01
39051;BME280;24805;55.852;37.644;2023-05-25T16:33:10;99193.03;;;23.31;50.32
39051;BME280;24805;55.852;37.644;2023-05-25T16:38:12;99197.06;;;23.23;50.34
39051;BME280;24805;55.852;37.644;2023-05-25T16:43:14;99195.16;;;23.09;50.58
39051;BME280;24805;55.852;37.644;2023-05-25T16:48:16;99179.94;;;22.87;51.13
39051;BME280;24805;55.852;37.644;2023-05-25T16:53:19;99199.94;;;22.86;51.13
39051;BME280;24805;55.852;37.644;2023-05-25T16:58:21;99194.72;;;22.69;51.95
39051;BME280;24805;55.852;37.644;2023-05-25T17:03:24;99184.88;;;22.48;51.90
39051;BME280;24805;55.852;37.644;2023-05-25T17:08:27;99190.44;;;22.26;52.95
39051;BME280;24805;55.852;37.644;2023-05-25T17:13:29;99194.91;;;22.06;53.63
39051;BME280;24805;55.852;37.644;2023-05-25T17:18:31;99193.06;;;21.79;54.11
39051;BME280;24805;55.852;37.644;2023-05-25T17:23:33;99189.38;;;21.58;54.39
39051;BME280;24805;55.852;37.644;2023-05-25T17:28:35;99191.06;;;21.33;55.28
39051;BME280;24805;55.852;37.644;2023-05-25T17:33:38;99194.19;;;21.03;56.30
39051;BME280;24805;55.852;37.644;2023-05-25T17:38:40;99199.88;;;20.79;56.52
39051;BME280;24805;55.852;37.644;2023-05-25T17:43:45;99208.50;;;20.59;57.53
39051;BME280;24805;55.852;37.644;2023-05-25T17:48:47;99206.66;;;20.38;58.00
39051;BME280;24805;55.852;37.644;2023-05-25T17:53:49;99210.09;;;20.17;58.60
39051;BME280;24805;55.852;37.644;2023-05-25T17:58:51;99217.66;;;20.03;59.12
39051;BME280;24805;55.852;37.644;2023-05-25T18:03:53;99215.31;;;19.90;59.76
39051;BME280;24805;55.852;37.644;2023-05-25T18:08:56;99195.66;;;19.73;60.08
39051;BME280;24805;55.852;37.644;2023-05-25T18:13:59;99193.94;;;19.67;60.30
39051;BME280;24805;55.852;37.644;2023-05-25T18:19:01;99173.69;;;19.47;60.60
39051;BME280;24805;55.852;37.644;2023-05-25T18:24:05;99203.16;;;19.54;61.01
39051;BME280;24805;55.852;37.644;2023-05-25T18:29:08;99194.75;;;19.50;60.99
39051;BME280;24805;55.852;37.644;2023-05-25T18:34:10;99206.53;;;19.49;61.35
39051;BME280;24805;55.852;37.644;2023-05-25T18:39:13;99197.78;;;19.42;61.75
39051;BME280;24805;55.852;37.644;2023-05-25T18:44:15;99198.94;;;19.30;60.91
39051;BME280;24805;55.852;37.644;2023-05-25T18:49:17;99197.91;;;19.19;61.07
39051;BME280;24805;55.852;37.644;2023-05-25T18:54:19;99206.03;;;19.07;61.65
39051;BME280;24805;55.852;37.644;2023-05-25T18:59:21;99200.50;;;18.97;62.58
39051;BME280;24805;55.852;37.644;2023-05-25T19:04:24;99190.88;;;18.73;62.29
39051;BME280;24805;55.852;37.644;2023-05-25T19:09:26;99206.75;;;18.74;62.57
39051;BME280;24805;55.852;37.644;2023-05-25T19:14:29;99186.09;;;18.51;62.86
39051;BME280;24805;55.852;37.644;2023-05-25T19:19:31;99224.38;;;18.58;62.90
39051;BME280;24805;55.852;37.644;2023-05-25T19:24:33;99224.28;;;18.53;62.97
39051;BME280;24805;55.852;37.644;2023-05-25T19:29:35;99207.69;;;18.45;62.80
39051;BME280;24805;55.852;37.644;2023-05-25T19:34:37;99218.78;;;18.48;62.63
39051;BME280;24805;55.852;37.644;2023-05-25T19:39:40;99217.41;;;18.46;62.80
39051;BME280;24805;55.852;37.644;2023-05-25T19:44:42;99211.44;;;18.44;62.68
39051;BME280;24805;55.852;37.644;2023-05-25T19:49:46;99209.81;;;18.43;62.70
39051;BME280;24805;55.852;37.644;2023-05-25T19:54:48;99212.72;;;18.41;63.03
39051;BME280;24805;55.852;37.644;2023-05-25T19:59:52;99214.50;;;18.36;63.24
39051;BME280;24805;55.852;37.644;2023-05-25T20:04:54;99197.47;;;18.18;63.36
39051;BME280;24805;55.852;37.644;2023-05-25T20:09:56;99209.72;;;18.14;63.53
39051;BME280;24805;55.852;37.644;2023-05-25T20:14:59;99217.31;;;18.17;63.83
39051;BME280;24805;55.852;37.644;2023-05-25T20:20:02;99214.16;;;18.09;64.45
39051;BME280;24805;55.852;37.644;2023-05-25T20:25:06;99204.81;;;18.00;64.86
39051;BME280;24805;55.852;37.644;2023-05-25T20:30:08;99205.53;;;17.95;65.21
39051;BME280;24805;55.852;37.644;2023-05-25T20:35:12;99208.09;;;17.90;65.02
39051;BME280;24805;55.852;37.644;2023-05-25T20:40:14;99198.13;;;17.79;65.30
39051;BME280;24805;55.852;37.644;2023-05-25T20:45:16;99210.50;;;17.80;65.61
39051;BME280;24805;55.852;37.644;2023-05-25T20:50:19;99203.03;;;17.70;65.60
39051;BME280;24805;55.852;37.644;2023-05-25T20:55:21;99198.13;;;17.67;66.13
39051;BME280;24805;55.852;37.644;2023-05-25T21:00:23;99208.19;;;17.72;66.21
39051;BME280;24805;55.852;37.644;2023-05-25T21:05:26;99198.72;;;17.69;66.51
39051;BME280;24805;55.852;37.644;2023-05-25T21:10:29;99202.59;;;17.73;66.32
39051;BME280;24805;55.852;37.644;2023-05-25T21:15:31;99196.75;;;17.76;66.27
39051;BME280;24805;55.852;37.644;2023-05-25T21:20:33;99187.75;;;17.82;66.25
39051;BME280;24805;55.852;37.644;2023-05-25T21:25:35;99191.25;;;17.83;66.20
39051;BME280;24805;55.852;37.644;2023-05-25T21:30:37;99172.94;;;17.80;66.64
39051;BME280;24805;55.852;37.644;2023-05-25T21:35:40;99187.19;;;17.80;67.03
39051;BME280;24805;55.852;37.644;2023-05-25T21:40:42;99178.81;;;17.77;67.06
39051;BME280;24805;55.852;37.644;2023-05-25T21:45:44;99174.94;;;17.73;67.17
39051;BME280;24805;55.852;37.644;2023-05-25T21:50:49;99176.81;;;17.72;67.20
39051;BME280;24805;55.852;37.644;2023-05-25T21:55:51;99178.16;;;17.63;67.46
39051;BME280;24805;55.852;37.644;2023-05-25T22:00:53;99176.63;;;17.55;67.43
39051;BME280;24805;55.852;37.644;2023-05-25T22:05:55;99178.16;;;17.51;67.77
39051;BME280;24805;55.852;37.644;2023-05-25T22:10:57;99174.50;;;17.46;68.02
39051;BME280;24805;55.852;37.644;2023-05-25T22:15:59;99168.56;;;17.44;68.65
39051;BME280;24805;55.852;37.644;2023-05-25T22:21:02;99167.16;;;17.41;68.84
39051;BME280;24805;55.852;37.644;2023-05-25T22:26:04;99155.28;;;17.37;69.04
39051;BME280;24805;55.852;37.644;2023-05-25T22:31:06;99168.91;;;17.36;68.77
39051;BME280;24805;55.852;37.644;2023-05-25T22:36:08;99164.81;;;17.33;68.88
39051;BME280;24805;55.852;37.644;2023-05-25T22:41:28;99169.28;;;17.51;69.44
39051;BME280;24805;55.852;37.644;2023-05-25T22:46:30;99155.81;;;17.28;69.71
39051;BME280;24805;55.852;37.644;2023-05-25T22:51:33;99147.41;;;17.24;69.87
39051;BME280;24805;55.852;37.644;2023-05-25T22:56:35;99145.41;;;17.19;70.06
39051;BME280;24805;55.852;37.644;2023-05-25T23:01:37;99149.63;;;17.15;69.89
39051;BME280;24805;55.852;37.644;2023-05-25T23:06:39;99142.94;;;17.06;69.88
39051;BME280;24805;55.852;37.644;2023-05-25T23:11:41;99139.31;;;17.01;70.22
39051;BME280;24805;55.852;37.644;2023-05-25T23:16:43;99143.38;;;16.92;70.27
39051;BME280;24805;55.852;37.644;2023-05-25T23:21:49;99137.28;;;16.84;70.20
39051;BME280;24805;55.852;37.644;2023-05-25T23:26:52;99147.38;;;16.82;70.89
39051;BME280;24805;55.852;37.644;2023-05-25T23:31:54;99146.22;;;16.78;71.04
39051;BME280;24805;55.852;37.644;2023-05-25T23:36:56;99159.47;;;16.73;71.10
39051;BME280;24805;55.852;37.644;2023-05-25T23:41:59;99160.38;;;16.67;71.37
39051;BME280;24805;55.852;37.644;2023-05-25T23:47:01;99166.59;;;16.61;71.46
39051;BME280;24805;55.852;37.644;2023-05-25T23:52:05;99163.50;;;16.64;71.93
39051;BME280;24805;55.852;37.644;2023-05-25T23:57:07;99171.94;;;16.61;72.06
